Alma, West Virginia
Current Conditions -  °F | °C
As of 6:53 PM on Saturday 22 Nov 2014 (Local Time) from KPKB Reporting Station
Broken Clouds Broken Clouds  
Wind Chill: 53°   Ceiling: 10000
Heat Index: 53°   Visibility: 10mi
Dew Point: 29°   Wind: 3mph
Humidity: 40%   Direction: 180°S
Pressure: 30.17"   Gusts: NA
Location:  39.43°N, 80.84°W
Report Text: KPKB 222353Z 18003KT 10SM BKN100 12/M02 A3017 RMK AO2 SLP223 60000 T01171017 10133 20094 56008
Loading
Personal Weather Stations






























Interactive Weather Map New forecast layout! Learn more

10-Day Weather Forecast

Advertisements
Track Severe Weather on mobile